Accueil
METAR-TAF:

METAR-TAF

Aéroports :

Aéroport de Strasbourg-Entzheim

Strasbourg, France

latitude: 48-33N, longitude: 007-38E, altitude: 153 m

Observation

Le bulletin a été fait il y a 35 minutes, à 15:30 UTC
Vent 2 kt de direction variable
Température 18°C
Humidité 32%
Pression 1027 hPa
Visibilité 10 km ou plus
pas de nuages en-dessous de 1500 mètres et pas de cumulonimbus.

METAR: LFST 221530Z AUTO VRB02KT CAVOK 18/01 Q1027 NOSIG

Heure: 17:05 (16:05 UTC)

Prévision

Le bulletin a été fait il y a 5 heures et 5 minutes, à 11:00 UTC
Prévision valable du 22 à 12 UTC au 23 à 12 UTC
Vent 3 kt de direction variable
Visibilité 10 km ou plus
pas de nuages en-dessous de 1500 mètres et pas de cumulonimbus.
Probabilité 30% :
Temporairement
du 23 à 03 UTC au 23 à 06 UTC
Visibilité: 4000 m
Brouillard mince

TAF: LFST 221100Z 2212/2312 VRB03KT CAVOK PROB30 TEMPO 2303/2306 4000 MIFG

Observations et prévisions météorologiques de plus de 4000 aéroports (messages METAR et TAF).

Les stations disponibles sont représentées par des disques jaunes et rouges sur la carte.

Passer la souris dessus pour voir le nom de la station.

Cliquer dessus pour voir les observations et prévisions météorologiques.

Pour changer de carte: cliquez sur les boutons verts avec une croix noire pour zoomer, sur le bouton vert avec un tiret pour effectuer un zoom arrière, ou sur les flèches vertes pour les cartes adjacentes.


METAR-TAF: